Terminal Aerodrome Forecast
Issued by NWS Topeka, KS

Home | Current Version | Previous Version | Text Only | Print | Product List | Glossary Off
Versions: 1 2 3 4 5 6 7 8 9 10 11 12 13 14 15 16 17 18 19 20 21

000
FTUS43 KTOP 180800 AAA
TAFTOP
TAF AMD
KTOP 180852Z 1809/1906 12003KT P6SM BKN200
     FM181030 11004KT P6SM -SHRA VCTS BKN050CB
     FM181500 13006KT 6SM -RA VCTS SCT025 BKN070CB
     FM182000 16009KT P6SM VCTS BKN050CB=

USA.gov is the U.S. government's official web portal to all federal, state and local government web resources and services.